KJHW

Chautauqua County / Jamestown Airport

Jamestown, New York, USA
METAR KJHW 170656Z AUTO 23010KT 7SM OVC009 00/M01 A2985 RMK AO2 SLP128 T00001006 FZRANO
Observed Flight Rules
Dec-17 @ 06:56 UTC (33 minutes ago) Instrument Flight Rules
Wind Visibility Clouds
230° at 10 knots 7 miles
  • Overcast at 900' AGL
Temperatures Readings
Current 0°C / 32°F
Dewpoint -1°C / 30°F
Humidity 93%
Altimeter 29.85" Hg
Pressure 1012.8 hPa
Elevation 525
METAR KJHW 170656Z AUTO 23010KT 7SM OVC009 00/M01 A2985 RMK AO2 SLP128 T00001006 FZRANO
Observed Flight Rules
Dec-17 @ 06:56 UTC
(33 minutes ago)
IFR
Wind Visibility
230° at 10 knots 7 miles
Clouds
  • Overcast at 900' AGL
Temperature Dewpoint
0°C / 32°F -1°C / 30°F
Humidity Altimeter Pressure
93% 29.85" Hg 1012.8 hPa